createdAt,value
2023-03-05T00:03:17.337Z,99958.11
2023-03-05T00:08:19.080Z,99958.88
2023-03-05T00:13:20.608Z,99961.10
2023-03-05T00:18:22.900Z,99959.13
2023-03-05T00:23:24.537Z,99950.95
2023-03-05T00:28:26.099Z,99948.02
2023-03-05T00:33:27.774Z,99946.35
2023-03-05T00:38:29.426Z,99947.09
2023-03-05T00:43:31.010Z,99944.80
2023-03-05T00:48:32.579Z,99938.95
2023-03-05T00:53:34.225Z,99930.62
2023-03-05T00:58:35.757Z,99929.86
2023-03-05T01:03:37.496Z,99923.89
2023-03-05T01:08:39.941Z,99921.63
2023-03-05T01:13:41.716Z,99916.08
2023-03-05T01:18:43.296Z,99910.60
2023-03-05T01:23:44.888Z,99905.46
2023-03-05T01:28:46.470Z,99901.16
2023-03-05T01:33:48.061Z,99896.23
2023-03-05T01:38:49.582Z,99889.34
2023-03-05T01:43:52.955Z,99886.09
2023-03-05T01:49:03.346Z,99884.55
2023-03-05T01:54:07.528Z,99876.30
2023-03-05T01:59:09.660Z,99873.25
2023-03-05T02:04:16.284Z,99871.54
2023-03-05T02:09:23.368Z,99872.02
2023-03-05T02:14:25.916Z,99869.43
2023-03-05T02:19:27.592Z,99870.38
2023-03-05T02:24:35.895Z,99869.52
2023-03-05T02:29:41.362Z,99866.10
2023-03-05T02:34:43.013Z,99864.58
2023-03-05T02:39:44.557Z,99860.01
2023-03-05T02:44:46.060Z,99858.21
2023-03-05T02:49:47.645Z,99849.73
2023-03-05T02:54:50.221Z,99851.02
2023-03-05T02:59:51.786Z,99845.10
2023-03-05T03:04:53.365Z,99842.48
2023-03-05T03:09:54.884Z,99841.06
2023-03-05T03:14:56.518Z,99836.92
2023-03-05T03:19:58.051Z,99833.21
2023-03-05T03:25:00.564Z,99831.36
2023-03-05T03:30:04.792Z,99828.00
2023-03-05T03:35:07.004Z,99828.84
2023-03-05T03:40:09.443Z,99822.94
2023-03-05T03:45:11.918Z,99815.08
2023-03-05T03:50:13.471Z,99811.75
2023-03-05T03:55:14.989Z,99806.65
2023-03-05T04:00:17.559Z,99803.39
2023-03-05T04:05:19.126Z,99796.99
2023-03-05T04:10:20.641Z,99791.30
2023-03-05T04:15:22.190Z,99785.17
2023-03-05T04:20:23.749Z,99783.98
2023-03-05T04:25:25.356Z,99780.54
2023-03-05T04:30:26.855Z,99777.65
2023-03-05T04:35:28.482Z,99776.03
2023-03-05T04:40:31.173Z,99775.91
2023-03-05T04:45:33.140Z,99777.14
2023-03-05T04:50:34.740Z,99773.21
2023-03-05T04:55:36.277Z,99770.36
2023-03-05T05:00:37.855Z,99765.45
2023-03-05T05:05:39.436Z,99760.56
2023-03-05T05:10:41.522Z,99756.01
2023-03-05T05:15:43.086Z,99754.63
2023-03-05T05:20:44.634Z,99750.58
2023-03-05T05:25:46.120Z,99747.23
2023-03-05T05:30:47.611Z,99743.04
2023-03-05T05:35:49.288Z,99738.55
2023-03-05T05:40:50.840Z,99744.95
2023-03-05T05:45:52.502Z,99740.18
2023-03-05T05:50:54.156Z,99740.65
2023-03-05T05:55:55.647Z,99736.95
2023-03-05T06:00:57.350Z,99739.79
2023-03-05T06:05:58.941Z,99736.96
2023-03-05T06:11:00.429Z,99733.98
2023-03-05T06:16:05.755Z,99734.65
2023-03-05T06:21:09.299Z,99730.98
2023-03-05T06:26:12.360Z,99726.27
2023-03-05T06:31:21.966Z,99728.50
2023-03-05T06:36:25.036Z,99726.25
2023-03-05T06:41:29.699Z,99721.21
2023-03-05T06:46:35.078Z,99716.92
2023-03-05T06:51:39.390Z,99705.65
2023-03-05T06:56:44.047Z,99695.77
2023-03-05T07:01:45.624Z,99686.09
2023-03-05T07:06:47.175Z,99683.52
2023-03-05T07:11:48.691Z,99673.62
2023-03-05T07:16:50.628Z,99664.02
2023-03-05T07:21:52.186Z,99658.77
2023-03-05T07:26:53.677Z,99636.70
2023-03-05T07:31:56.034Z,99609.50
2023-03-05T07:36:57.538Z,99602.80
2023-03-05T07:41:59.004Z,99602.97
2023-03-05T07:47:00.850Z,99637.74
2023-03-05T07:52:02.417Z,99629.15
2023-03-05T07:57:05.338Z,99620.95
2023-03-05T08:02:07.752Z,99615.96
2023-03-05T08:07:09.451Z,99615.69
2023-03-05T08:12:10.996Z,99623.69
2023-03-05T08:17:12.469Z,99620.48
2023-03-05T08:22:16.135Z,99626.59
2023-03-05T08:27:17.696Z,99628.48
2023-03-05T08:32:19.320Z,99622.73
2023-03-05T08:37:20.825Z,99619.00
2023-03-05T08:42:23.525Z,99616.13
2023-03-05T08:47:26.782Z,99612.73
2023-03-05T08:52:28.294Z,99611.55
2023-03-05T08:57:29.851Z,99611.39
2023-03-05T09:02:31.506Z,99606.63
2023-03-05T09:07:33.092Z,99607.30
2023-03-05T09:12:34.599Z,99609.85
2023-03-05T09:17:41.722Z,99609.35
2023-03-05T09:22:43.483Z,99604.60
2023-03-05T09:27:45.733Z,99611.04
2023-03-05T09:32:47.402Z,99608.00
2023-03-05T09:37:48.998Z,99606.64
2023-03-05T09:43:33.913Z,99606.81
2023-03-05T09:48:52.077Z,99606.47
2023-03-05T09:54:32.684Z,99605.29
2023-03-05T09:59:47.888Z,99603.41
2023-03-05T10:05:13.171Z,99599.52
2023-03-05T10:10:27.557Z,99601.23
2023-03-05T10:15:39.054Z,99598.33
2023-03-05T10:20:55.235Z,99594.77
2023-03-05T10:26:08.728Z,99587.14
2023-03-05T10:31:36.811Z,99581.71
2023-03-05T10:36:59.896Z,99580.86
2023-03-05T10:42:13.549Z,99579.84
2023-03-05T10:47:24.336Z,99576.13
2023-03-05T10:52:35.478Z,99573.25
2023-03-05T10:57:37.001Z,99566.13
2023-03-05T11:02:59.268Z,99561.56
2023-03-05T11:08:00.794Z,99556.48
2023-03-05T11:13:25.049Z,99555.45
2023-03-05T11:18:26.859Z,99544.09
2023-03-05T11:23:28.346Z,99537.84
2023-03-05T11:28:36.510Z,99539.88
2023-03-05T11:33:38.568Z,99534.96
2023-03-05T11:38:52.890Z,99528.35
2023-03-05T11:43:55.872Z,99519.04
2023-03-05T11:48:58.516Z,99518.86
2023-03-05T11:54:08.925Z,99512.94
2023-03-05T11:59:22.377Z,99510.22
2023-03-05T12:04:24.654Z,99502.77
2023-03-05T12:09:42.124Z,99501.08
2023-03-05T12:15:25.958Z,99499.72
2023-03-05T12:21:05.252Z,99497.35
2023-03-05T12:26:06.748Z,99490.58
2023-03-05T12:31:29.340Z,99490.75
2023-03-05T12:36:38.183Z,99491.08
2023-03-05T12:41:40.542Z,99488.71
2023-03-05T12:46:43.662Z,99482.11
2023-03-05T12:51:50.316Z,99477.88
2023-03-05T12:56:53.504Z,99473.13
2023-03-05T13:02:00.557Z,99470.09
2023-03-05T13:07:05.348Z,99465.49
2023-03-05T13:12:14.002Z,99463.30
2023-03-05T13:17:41.226Z,99465.30
2023-03-05T13:22:42.811Z,99462.77
2023-03-05T13:27:44.576Z,99459.05
2023-03-05T13:32:51.445Z,99457.88
2023-03-05T13:37:53.059Z,99453.65
2023-03-05T13:42:56.634Z,99450.44
2023-03-05T13:48:04.296Z,99450.41
2023-03-05T13:53:22.538Z,99440.95
2023-03-05T13:58:53.586Z,99439.76
2023-03-05T14:03:58.688Z,99436.89
2023-03-05T14:09:07.679Z,99432.14
2023-03-05T14:14:16.854Z,99426.88
2023-03-05T14:19:44.859Z,99424.66
2023-03-05T14:24:52.799Z,99420.97
2023-03-05T14:29:54.633Z,99415.71
2023-03-05T14:34:59.514Z,99417.08
2023-03-05T14:40:05.590Z,99413.70
2023-03-05T14:45:15.109Z,99407.79
2023-03-05T14:50:22.430Z,99401.69
2023-03-05T14:55:27.349Z,99396.09
2023-03-05T15:00:28.941Z,99390.51
2023-03-05T15:05:30.817Z,99391.35
2023-03-05T15:10:32.493Z,99385.59
2023-03-05T15:15:34.444Z,99380.51
2023-03-05T15:20:36.853Z,99378.80
2023-03-05T15:25:38.706Z,99375.59
2023-03-05T15:30:46.783Z,99367.66
2023-03-05T15:35:48.668Z,99376.80
2023-03-05T15:40:50.446Z,99380.34
2023-03-05T15:45:52.029Z,99382.02
2023-03-05T15:50:53.575Z,99382.35
2023-03-05T15:55:55.074Z,99387.91
2023-03-05T16:00:56.632Z,99392.48
2023-03-05T16:05:58.122Z,99393.31
2023-03-05T16:11:00.588Z,99399.21
2023-03-05T16:16:04.681Z,99400.55
2023-03-05T16:21:06.370Z,99406.44
2023-03-05T16:26:10.492Z,99408.77
2023-03-05T16:31:12.034Z,99413.30
2023-03-05T16:36:21.719Z,99421.02
2023-03-05T16:41:24.369Z,99426.52
2023-03-05T16:46:28.874Z,99431.85
2023-03-05T16:51:30.858Z,99433.81
2023-03-05T16:56:32.397Z,99436.98
2023-03-05T17:01:33.939Z,99436.33
2023-03-05T17:06:35.686Z,99435.84
2023-03-05T17:11:37.199Z,99437.89
2023-03-05T17:16:39.100Z,99439.59
2023-03-05T17:21:42.730Z,99446.84
2023-03-05T17:26:44.560Z,99448.48
2023-03-05T17:31:46.846Z,99449.75
2023-03-05T17:36:50.524Z,99449.29
2023-03-05T17:41:52.044Z,99447.54
2023-03-05T17:46:53.569Z,99449.61
2023-03-05T17:51:55.624Z,99444.09
2023-03-05T17:56:58.020Z,99442.55
2023-03-05T18:01:59.587Z,99437.42
2023-03-05T18:07:01.941Z,99436.98
2023-03-05T18:12:03.753Z,99441.62
2023-03-05T18:17:05.371Z,99440.45
2023-03-05T18:22:06.879Z,99440.80
2023-03-05T18:27:08.416Z,99437.40
2023-03-05T18:32:10.009Z,99434.02
2023-03-05T18:37:11.537Z,99436.33
2023-03-05T18:42:14.227Z,99440.27
2023-03-05T18:47:15.772Z,99439.28
2023-03-05T18:52:17.242Z,99437.10
2023-03-05T18:57:18.762Z,99430.97
2023-03-05T19:02:20.245Z,99433.48
2023-03-05T19:07:21.849Z,99439.11
2023-03-05T19:12:31.697Z,99440.31
2023-03-05T19:17:33.201Z,99440.31
2023-03-05T19:22:34.998Z,99443.34
2023-03-05T19:27:37.838Z,99444.50
2023-03-05T19:32:39.542Z,99442.89
2023-03-05T19:37:41.174Z,99444.39
2023-03-05T19:42:42.888Z,99447.83
2023-03-05T19:47:44.390Z,99448.15
2023-03-05T19:52:45.915Z,99447.95
2023-03-05T19:57:47.553Z,99446.70
2023-03-05T20:02:49.459Z,99449.39
2023-03-05T20:07:51.826Z,99451.03
2023-03-05T20:12:53.394Z,99453.11
2023-03-05T20:17:57.725Z,99455.17
2023-03-05T20:22:59.301Z,99454.96
2023-03-05T20:28:00.845Z,99453.66
2023-03-05T20:33:04.165Z,99456.36
2023-03-05T20:38:22.323Z,99453.71
2023-03-05T20:43:25.384Z,99450.70
2023-03-05T20:48:29.211Z,99452.06
2023-03-05T20:53:30.740Z,99451.61
2023-03-05T20:58:32.396Z,99449.67
2023-03-05T21:03:34.390Z,99453.48
2023-03-05T21:08:35.948Z,99455.52
2023-03-05T21:13:37.620Z,99450.97
2023-03-05T21:18:39.566Z,99447.27
2023-03-05T21:23:41.093Z,99446.77
2023-03-05T21:28:42.622Z,99446.48
2023-03-05T21:33:44.549Z,99439.37
2023-03-05T21:38:49.832Z,99437.75
2023-03-05T21:43:51.493Z,99441.16
2023-03-05T21:48:52.963Z,99432.23
2023-03-05T21:53:54.534Z,99434.59
2023-03-05T21:58:56.009Z,99428.73
2023-03-05T22:03:57.614Z,99423.91
2023-03-05T22:08:59.188Z,99422.41
2023-03-05T22:14:00.704Z,99420.36
2023-03-05T22:19:02.583Z,99422.70
2023-03-05T22:24:04.161Z,99425.05
2023-03-05T22:29:08.495Z,99429.48
2023-03-05T22:34:10.723Z,99425.95
2023-03-05T22:39:12.286Z,99426.81
2023-03-05T22:44:13.807Z,99423.86
2023-03-05T22:49:15.361Z,99425.53
2023-03-05T22:54:16.833Z,99435.11
2023-03-05T22:59:18.380Z,99433.27
2023-03-05T23:04:50.195Z,99433.70
2023-03-05T23:10:19.536Z,99430.17
2023-03-05T23:15:27.239Z,99427.59
2023-03-05T23:20:33.074Z,99418.58
2023-03-05T23:25:36.491Z,99425.81
2023-03-05T23:30:39.537Z,99423.79
2023-03-05T23:35:43.884Z,99417.18
2023-03-05T23:40:48.391Z,99420.11
2023-03-05T23:45:50.191Z,99422.80
2023-03-05T23:50:52.018Z,99419.52
2023-03-05T23:55:54.555Z,99420.36
